createdAt,value
2023-01-11T00:00:25.794Z,17.67
2023-01-11T00:03:12.564Z,17.95
2023-01-11T00:05:43.134Z,17.08
2023-01-11T00:08:09.930Z,17.98
2023-01-11T00:10:37.270Z,16.80
2023-01-11T00:13:04.153Z,16.33
2023-01-11T00:15:31.209Z,17.17
2023-01-11T00:17:57.918Z,16.98
2023-01-11T00:20:25.083Z,16.40
2023-01-11T00:22:51.810Z,17.40
2023-01-11T00:25:18.856Z,16.77
2023-01-11T00:27:47.388Z,18.08
2023-01-11T00:30:14.574Z,16.88
2023-01-11T00:32:41.369Z,18.60
2023-01-11T00:35:08.784Z,17.83
2023-01-11T00:37:35.590Z,16.85
2023-01-11T00:40:02.849Z,17.48
2023-01-11T00:42:48.194Z,16.10
2023-01-11T00:45:33.941Z,18.13
2023-01-11T00:48:01.182Z,17.90
2023-01-11T00:50:31.806Z,17.13
2023-01-11T00:52:58.818Z,17.33
2023-01-11T00:55:26.323Z,16.35
2023-01-11T00:57:53.076Z,17.80
2023-01-11T01:00:20.940Z,18.48
2023-01-11T01:02:47.911Z,16.95
2023-01-11T01:05:15.109Z,17.77
2023-01-11T01:07:41.907Z,17.63
2023-01-11T01:10:09.520Z,18.02
2023-01-11T01:12:54.775Z,17.67
2023-01-11T01:15:21.876Z,17.05
2023-01-11T01:17:48.588Z,18.20
2023-01-11T01:20:15.790Z,17.98
2023-01-11T01:22:42.419Z,16.83
2023-01-11T01:25:09.751Z,17.38
2023-01-11T01:27:36.546Z,16.33
2023-01-11T01:30:05.051Z,16.48
2023-01-11T01:32:31.786Z,16.05
2023-01-11T01:34:58.812Z,17.50
2023-01-11T01:37:26.331Z,16.40
2023-01-11T01:39:53.274Z,16.17
2023-01-11T01:42:20.674Z,16.15
2023-01-11T01:45:04.018Z,16.73
2023-01-11T01:47:45.704Z,16.50
2023-01-11T01:50:41.981Z,16.60
2023-01-11T01:53:11.296Z,16.13
2023-01-11T01:55:39.638Z,15.85
2023-01-11T01:58:09.353Z,15.73
2023-01-11T02:00:41.128Z,16.17
2023-01-11T02:03:45.218Z,16.23
2023-01-11T02:06:12.125Z,15.25
2023-01-11T02:08:39.453Z,17.40
2023-01-11T02:11:26.444Z,15.93
2023-01-11T02:13:53.689Z,15.52
2023-01-11T02:16:20.675Z,14.43
2023-01-11T02:18:47.396Z,15.90
2023-01-11T02:21:22.009Z,15.05
2023-01-11T02:24:16.640Z,15.13
2023-01-11T02:26:52.836Z,15.77
2023-01-11T02:29:25.769Z,16.75
2023-01-11T02:32:26.265Z,15.23
2023-01-11T02:35:08.883Z,14.98
2023-01-11T02:37:44.573Z,16.02
2023-01-11T02:43:11.244Z,15.75
2023-01-11T02:45:56.246Z,14.57
2023-01-11T02:48:31.334Z,15.80
2023-01-11T02:51:12.990Z,16.13
2023-01-11T02:53:41.539Z,15.38
2023-01-11T02:56:11.260Z,16.08
2023-01-11T02:58:40.075Z,15.40
2023-01-11T03:01:06.803Z,16.67
2023-01-11T03:03:34.193Z,15.75
2023-01-11T03:06:02.422Z,15.63
2023-01-11T03:09:01.236Z,15.38
2023-01-11T03:12:05.431Z,15.63
2023-01-11T03:15:05.818Z,16.40
2023-01-11T03:18:01.820Z,15.85
2023-01-11T03:20:37.667Z,15.77
2023-01-11T03:23:07.323Z,16.25
2023-01-11T03:25:53.635Z,15.63
2023-01-11T03:28:23.272Z,15.15
2023-01-11T03:31:02.495Z,17.08
2023-01-11T03:33:45.562Z,16.25
2023-01-11T03:36:18.720Z,15.30
2023-01-11T03:38:55.557Z,16.15
2023-01-11T03:41:30.384Z,15.98
2023-01-11T03:43:57.060Z,16.00
2023-01-11T03:46:27.013Z,16.20
2023-01-11T03:49:04.195Z,15.57
2023-01-11T03:51:34.005Z,15.10
2023-01-11T03:54:01.903Z,16.02
2023-01-11T03:57:07.041Z,15.38
2023-01-11T03:59:33.811Z,15.93
2023-01-11T04:02:01.027Z,16.58
2023-01-11T04:04:27.932Z,16.75
2023-01-11T04:06:54.929Z,17.23
2023-01-11T04:09:21.721Z,17.13
2023-01-11T04:11:51.644Z,16.27
2023-01-11T04:14:18.271Z,17.23
2023-01-11T04:16:45.187Z,17.52
2023-01-11T04:19:11.787Z,16.80
2023-01-11T04:21:38.783Z,18.23
2023-01-11T04:24:05.729Z,18.35
2023-01-11T04:26:33.173Z,17.48
2023-01-11T04:28:59.815Z,19.38
2023-01-11T04:31:26.867Z,19.25
2023-01-11T04:33:53.607Z,21.08
2023-01-11T04:36:20.607Z,20.65
2023-01-11T04:38:47.398Z,19.02
2023-01-11T04:41:32.873Z,21.20
2023-01-11T04:43:59.618Z,21.30
2023-01-11T04:46:26.583Z,22.38
2023-01-11T04:48:53.325Z,20.55
2023-01-11T04:51:20.354Z,20.67
2023-01-11T04:53:49.053Z,22.00
2023-01-11T04:56:16.305Z,19.90
2023-01-11T04:58:42.933Z,23.35
2023-01-11T05:01:11.260Z,24.15
2023-01-11T05:03:38.250Z,24.58
2023-01-11T05:06:05.563Z,24.70
2023-01-11T05:08:32.370Z,23.80
2023-01-11T05:11:00.866Z,22.90
2023-01-11T05:13:42.748Z,24.13
2023-01-11T05:16:23.824Z,23.95
2023-01-11T05:18:52.189Z,22.77
2023-01-11T05:21:22.176Z,23.23
2023-01-11T05:23:49.181Z,26.40
2023-01-11T05:26:22.939Z,24.27
2023-01-11T05:28:49.779Z,23.95
2023-01-11T05:31:17.111Z,25.83
2023-01-11T05:33:43.925Z,25.38
2023-01-11T05:36:16.241Z,26.63
2023-01-11T05:38:43.026Z,26.40
2023-01-11T05:41:10.119Z,28.02
2023-01-11T05:43:59.976Z,27.10
2023-01-11T05:46:27.094Z,26.13
2023-01-11T05:48:56.841Z,26.55
2023-01-11T05:51:23.829Z,26.27
2023-01-11T05:53:50.474Z,25.33
2023-01-11T05:56:17.437Z,28.23
2023-01-11T05:58:44.076Z,27.95
2023-01-11T06:01:11.977Z,28.30
2023-01-11T06:03:38.656Z,29.60
2023-01-11T06:06:05.873Z,28.75
2023-01-11T06:08:32.524Z,29.10
2023-01-11T06:10:59.513Z,28.15
2023-01-11T06:13:29.302Z,29.48
2023-01-11T06:16:00.562Z,28.67
2023-01-11T06:18:28.570Z,27.92
2023-01-11T06:20:55.841Z,31.08
2023-01-11T06:23:23.205Z,29.42
2023-01-11T06:25:50.135Z,29.77
2023-01-11T06:28:16.869Z,29.80
2023-01-11T06:30:43.859Z,28.85
2023-01-11T06:33:10.507Z,30.63
2023-01-11T06:35:41.397Z,29.17
2023-01-11T06:38:09.348Z,30.13
2023-01-11T06:40:36.771Z,30.75
2023-01-11T06:43:03.752Z,29.13
2023-01-11T06:45:30.897Z,30.83
2023-01-11T06:47:57.842Z,32.75
2023-01-11T06:50:24.894Z,32.55
2023-01-11T06:52:55.873Z,32.55
2023-01-11T06:55:23.168Z,33.75
2023-01-11T06:57:49.867Z,34.47
2023-01-11T07:00:17.554Z,34.13
2023-01-11T07:02:45.049Z,35.17
2023-01-11T07:05:12.439Z,34.72
2023-01-11T07:07:39.361Z,35.97
2023-01-11T07:10:08.125Z,36.30
2023-01-11T07:12:35.677Z,37.28
2023-01-11T07:15:06.770Z,36.55
2023-01-11T07:17:33.794Z,36.97
2023-01-11T07:20:00.824Z,38.58
2023-01-11T07:22:28.324Z,36.88
2023-01-11T07:24:55.334Z,39.47
2023-01-11T07:27:21.994Z,39.17
2023-01-11T07:29:48.909Z,42.33
2023-01-11T07:32:16.716Z,41.65
2023-01-11T07:34:43.657Z,42.00
2023-01-11T07:37:28.427Z,42.70
2023-01-11T07:39:56.421Z,44.75
2023-01-11T07:42:41.878Z,46.55
2023-01-11T07:45:09.202Z,44.72
2023-01-11T07:47:35.952Z,46.00
2023-01-11T07:50:03.055Z,46.67
2023-01-11T07:52:29.740Z,46.95
2023-01-11T07:55:02.445Z,45.08
2023-01-11T07:57:30.037Z,46.05
2023-01-11T07:59:57.063Z,45.67
2023-01-11T08:02:23.866Z,44.72
2023-01-11T08:04:50.983Z,46.25
2023-01-11T08:07:17.648Z,45.63
2023-01-11T08:09:44.666Z,46.15
2023-01-11T08:12:29.792Z,44.00
2023-01-11T08:14:56.725Z,45.42
2023-01-11T08:17:23.772Z,43.35
2023-01-11T08:19:50.758Z,45.13
2023-01-11T08:22:20.304Z,42.13
2023-01-11T08:24:47.364Z,44.22
2023-01-11T08:27:14.192Z,42.92
2023-01-11T08:29:44.124Z,41.38
2023-01-11T08:32:14.298Z,39.95
2023-01-11T08:34:41.514Z,40.85
2023-01-11T08:37:08.182Z,41.08
2023-01-11T08:39:35.246Z,40.60
2023-01-11T08:42:03.149Z,39.70
2023-01-11T08:44:34.521Z,40.60
2023-01-11T08:47:02.952Z,39.33
2023-01-11T08:49:30.696Z,39.58
2023-01-11T08:51:57.597Z,41.28
2023-01-11T08:54:25.080Z,43.08
2023-01-11T08:56:51.783Z,43.42
2023-01-11T08:59:19.954Z,41.78
2023-01-11T09:01:47.433Z,41.22
2023-01-11T09:04:24.175Z,43.17
2023-01-11T09:06:52.881Z,42.58
2023-01-11T09:09:19.943Z,40.65
2023-01-11T09:11:57.093Z,40.67
2023-01-11T09:14:25.395Z,41.42
2023-01-11T09:16:52.623Z,41.97
2023-01-11T09:19:19.874Z,41.83
2023-01-11T09:21:46.800Z,36.97
2023-01-11T09:24:14.187Z,39.15
2023-01-11T09:26:43.309Z,36.72
2023-01-11T09:29:11.316Z,37.47
2023-01-11T09:31:38.158Z,36.05
2023-01-11T09:34:06.869Z,38.97
2023-01-11T09:36:35.948Z,39.00
2023-01-11T09:39:07.618Z,42.15
2023-01-11T09:42:05.402Z,46.47
2023-01-11T09:44:34.513Z,47.33
2023-01-11T09:47:14.505Z,49.38
2023-01-11T09:49:43.289Z,47.63
2023-01-11T09:52:28.771Z,48.17
2023-01-11T09:57:44.506Z,42.03
2023-01-11T10:00:12.172Z,40.22
2023-01-11T10:03:00.711Z,42.25
2023-01-11T10:05:40.060Z,40.13
2023-01-11T10:18:26.029Z,34.47
2023-01-11T10:18:37.473Z,34.90
2023-01-11T10:20:35.359Z,32.53
2023-01-11T10:23:08.960Z,33.85
2023-01-11T10:25:42.657Z,32.00
2023-01-11T10:28:32.236Z,32.40
2023-01-11T10:30:58.913Z,31.20
2023-01-11T10:34:03.591Z,30.48
2023-01-11T10:37:12.886Z,28.42
2023-01-11T10:40:07.036Z,27.55
2023-01-11T10:42:39.925Z,25.98
2023-01-11T10:45:14.349Z,24.27
2023-01-11T10:48:02.986Z,24.25
2023-01-11T10:51:01.773Z,21.10
2023-01-11T10:53:55.114Z,20.58
2023-01-11T10:56:24.588Z,21.58
2023-01-11T10:59:00.681Z,21.45
2023-01-11T11:01:42.208Z,22.45
2023-01-11T11:04:44.275Z,22.60
2023-01-11T11:07:20.600Z,21.80
2023-01-11T11:09:55.727Z,21.17
2023-01-11T11:12:28.869Z,20.67
2023-01-11T11:15:25.299Z,19.30
2023-01-11T11:17:53.097Z,18.15
2023-01-11T11:20:24.249Z,17.83
2023-01-11T11:22:52.027Z,16.80
2023-01-11T11:25:27.528Z,16.00
2023-01-11T11:28:05.047Z,16.58
2023-01-11T11:30:38.172Z,16.40
2023-01-11T11:33:26.070Z,15.15
2023-01-11T11:36:09.486Z,15.02
2023-01-11T11:38:43.237Z,12.73
2023-01-11T11:41:15.040Z,14.20
2023-01-11T11:43:43.248Z,12.93
2023-01-11T11:46:19.888Z,11.25
2023-01-11T11:49:10.572Z,9.80
2023-01-11T11:51:37.357Z,10.82
2023-01-11T11:54:04.368Z,9.73
2023-01-11T11:56:33.090Z,9.23
2023-01-11T11:59:05.137Z,8.52
2023-01-11T12:01:34.060Z,8.38
2023-01-11T12:04:03.661Z,7.85
2023-01-11T12:06:30.532Z,7.78
2023-01-11T12:08:59.253Z,7.82
2023-01-11T12:11:36.052Z,6.15
2023-01-11T12:14:22.622Z,6.22
2023-01-11T12:16:49.440Z,5.75
2023-01-11T12:19:41.875Z,6.05
2023-01-11T12:22:22.347Z,5.72
2023-01-11T12:25:05.292Z,5.07
2023-01-11T12:27:56.072Z,5.35
2023-01-11T12:30:46.804Z,5.75
2023-01-11T12:33:31.942Z,4.63
2023-01-11T12:36:05.040Z,4.65
2023-01-11T12:38:45.630Z,5.00
2023-01-11T12:41:19.687Z,4.57
2023-01-11T12:44:01.810Z,4.68
2023-01-11T12:46:31.858Z,4.15
2023-01-11T12:49:23.651Z,4.75
2023-01-11T12:52:29.332Z,4.60
2023-01-11T12:55:30.240Z,4.40
2023-01-11T12:58:01.446Z,4.22
2023-01-11T13:00:58.624Z,5.03
2023-01-11T13:03:34.158Z,4.53
2023-01-11T13:06:14.435Z,5.63
2023-01-11T13:08:56.621Z,5.82
2023-01-11T13:11:43.511Z,6.35
2023-01-11T13:14:22.629Z,6.88
2023-01-11T13:16:56.654Z,6.07
2023-01-11T13:19:32.731Z,7.40
2023-01-11T13:21:59.635Z,6.57
2023-01-11T13:24:28.933Z,5.75
2023-01-11T13:26:59.482Z,6.50
2023-01-11T13:29:31.783Z,7.03
2023-01-11T13:31:59.521Z,7.30
2023-01-11T13:34:38.995Z,6.85
2023-01-11T13:37:22.781Z,7.22
2023-01-11T13:39:55.851Z,7.15
2023-01-11T13:42:24.621Z,7.10
2023-01-11T13:45:04.315Z,7.45
2023-01-11T13:47:33.215Z,6.90
2023-01-11T13:50:20.284Z,7.53
2023-01-11T13:53:15.337Z,8.02
2023-01-11T13:55:59.088Z,6.88
2023-01-11T13:58:44.342Z,6.85
2023-01-11T14:01:15.570Z,6.57
2023-01-11T14:03:51.395Z,7.70
2023-01-11T14:06:24.458Z,6.90
2023-01-11T14:08:54.187Z,6.82
2023-01-11T14:11:43.045Z,6.72
2023-01-11T14:14:31.703Z,8.32
2023-01-11T14:17:17.371Z,8.60
2023-01-11T14:19:52.712Z,7.88
2023-01-11T14:22:46.108Z,9.52
2023-01-11T14:25:18.921Z,9.45
2023-01-11T14:27:55.053Z,10.25
2023-01-11T14:30:31.161Z,10.68
2023-01-11T14:33:24.249Z,11.00
2023-01-11T14:36:00.380Z,12.00
2023-01-11T14:38:27.322Z,12.88
2023-01-11T14:40:53.997Z,15.63
2023-01-11T14:43:49.023Z,16.58
2023-01-11T14:46:24.119Z,17.15
2023-01-11T14:51:33.090Z,15.95
2023-01-11T14:54:04.469Z,17.00
2023-01-11T14:56:53.274Z,16.20
2023-01-11T14:59:24.530Z,15.65
2023-01-11T15:02:03.527Z,14.52
2023-01-11T15:04:30.713Z,15.77
2023-01-11T15:06:57.516Z,14.75
2023-01-11T15:09:49.499Z,13.65
2023-01-11T15:12:19.754Z,15.48
2023-01-11T15:14:54.600Z,16.30
2023-01-11T15:17:42.796Z,15.65
2023-01-11T15:20:11.497Z,14.65
2023-01-11T15:22:45.479Z,15.60
2023-01-11T15:25:25.177Z,15.65
2023-01-11T15:27:52.301Z,15.57
2023-01-11T15:30:31.506Z,14.63
2023-01-11T15:33:17.508Z,13.85
2023-01-11T15:36:03.570Z,14.70
2023-01-11T15:38:34.659Z,13.57
2023-01-11T15:41:20.280Z,14.50
2023-01-11T15:44:17.934Z,14.02
2023-01-11T15:47:01.527Z,12.68
2023-01-11T15:50:06.349Z,12.85
2023-01-11T15:52:55.352Z,13.15
2023-01-11T15:55:59.419Z,12.63
2023-01-11T15:58:41.547Z,12.38
2023-01-11T16:01:29.950Z,14.30
2023-01-11T16:04:01.204Z,13.80
2023-01-11T16:06:37.079Z,12.48
2023-01-11T16:09:06.988Z,12.02
2023-01-11T16:11:44.943Z,13.23
2023-01-11T16:14:33.810Z,13.63
2023-01-11T16:17:00.437Z,13.13
2023-01-11T16:19:34.399Z,12.85
2023-01-11T16:22:02.414Z,13.65
2023-01-11T16:24:29.826Z,13.63
2023-01-11T16:26:58.703Z,12.75
2023-01-11T16:29:26.996Z,13.00
2023-01-11T16:32:01.521Z,13.38
2023-01-11T16:34:29.927Z,12.88
2023-01-11T16:36:57.613Z,11.68
2023-01-11T16:39:25.914Z,11.85
2023-01-11T16:42:00.822Z,13.10
2023-01-11T16:44:45.504Z,12.73
2023-01-11T16:47:14.322Z,11.98
2023-01-11T16:49:43.028Z,12.43
2023-01-11T16:52:28.066Z,12.35
2023-01-11T16:54:58.151Z,13.95
2023-01-11T16:57:28.953Z,13.68
2023-01-11T17:00:00.565Z,15.48
2023-01-11T17:02:32.706Z,14.95
2023-01-11T17:05:00.592Z,14.10
2023-01-11T17:07:28.696Z,14.88
2023-01-11T17:10:21.912Z,14.63
2023-01-11T17:13:03.825Z,12.38
2023-01-11T17:15:53.814Z,14.20
2023-01-11T17:18:20.446Z,13.52
2023-01-11T17:20:51.627Z,12.73
2023-01-11T17:23:18.306Z,12.88
2023-01-11T17:25:45.456Z,12.75
2023-01-11T17:28:17.450Z,11.88
2023-01-11T17:30:45.546Z,11.52
2023-01-11T17:33:25.031Z,11.05
2023-01-11T17:35:51.999Z,11.75
2023-01-11T17:38:22.163Z,10.18
2023-01-11T17:40:49.145Z,11.25
2023-01-11T17:43:44.671Z,10.20
2023-01-11T17:46:19.672Z,10.30
2023-01-11T17:49:03.655Z,10.15
2023-01-11T17:51:32.243Z,9.88
2023-01-11T17:53:58.983Z,10.43
2023-01-11T17:56:39.221Z,11.20
2023-01-11T17:59:25.761Z,9.45
2023-01-11T18:02:00.340Z,10.52
2023-01-11T18:04:27.266Z,8.82
2023-01-11T18:06:55.790Z,9.18
2023-01-11T18:09:29.382Z,8.90
2023-01-11T18:12:26.114Z,9.55
2023-01-11T18:14:57.777Z,9.80
2023-01-11T18:17:37.085Z,9.77
2023-01-11T18:20:29.411Z,9.07
2023-01-11T18:23:12.190Z,8.52
2023-01-11T18:25:38.887Z,9.63
2023-01-11T18:28:20.948Z,9.10
2023-01-11T18:30:56.555Z,10.18
2023-01-11T18:33:25.851Z,10.48
2023-01-11T18:35:59.877Z,10.07
2023-01-11T18:38:34.400Z,9.35
2023-01-11T18:41:25.531Z,9.68
2023-01-11T18:43:52.988Z,8.90
2023-01-11T18:46:20.965Z,8.40
2023-01-11T18:48:47.923Z,8.98
2023-01-11T18:51:27.399Z,8.35
2023-01-11T18:53:54.364Z,8.88
2023-01-11T18:56:21.075Z,8.02
2023-01-11T18:58:49.152Z,8.65
2023-01-11T19:01:15.839Z,7.70
2023-01-11T19:03:45.886Z,8.52
2023-01-11T19:06:22.973Z,7.47
2023-01-11T19:08:49.910Z,9.43
2023-01-11T19:11:16.878Z,8.23
2023-01-11T19:13:46.640Z,8.02
2023-01-11T19:16:13.925Z,7.75
2023-01-11T19:18:40.840Z,8.15
2023-01-11T19:21:14.402Z,7.53
2023-01-11T19:23:43.753Z,7.70
2023-01-11T19:26:10.420Z,7.65
2023-01-11T19:28:37.406Z,8.35
2023-01-11T19:31:08.280Z,7.82
2023-01-11T19:33:35.323Z,7.53
2023-01-11T19:36:06.501Z,7.53
2023-01-11T19:38:34.123Z,7.85
2023-01-11T19:41:05.206Z,6.60
2023-01-11T19:43:32.306Z,8.02
2023-01-11T19:45:59.446Z,7.55
2023-01-11T19:48:26.410Z,7.85
2023-01-11T19:51:01.287Z,7.03
2023-01-11T19:53:30.188Z,7.43
2023-01-11T19:56:04.384Z,7.10
2023-01-11T19:58:31.535Z,8.20
2023-01-11T20:00:58.271Z,7.35
2023-01-11T20:03:25.717Z,7.60
2023-01-11T20:05:52.381Z,7.90
2023-01-11T20:08:19.497Z,7.57
2023-01-11T20:10:47.551Z,8.52
2023-01-11T20:13:14.635Z,8.27
2023-01-11T20:15:41.387Z,9.45
2023-01-11T20:18:08.505Z,7.13
2023-01-11T20:20:35.261Z,8.02
2023-01-11T20:23:02.227Z,8.02
2023-01-11T20:25:28.899Z,7.75
2023-01-11T20:27:55.832Z,7.72
2023-01-11T20:30:22.556Z,7.93
2023-01-11T20:32:49.544Z,7.95
2023-01-11T20:35:21.385Z,8.82
2023-01-11T20:37:48.517Z,8.80
2023-01-11T20:40:15.516Z,8.55
2023-01-11T20:42:42.467Z,8.30
2023-01-11T20:45:10.836Z,7.45
2023-01-11T20:47:38.002Z,8.52
2023-01-11T20:50:04.989Z,7.80
2023-01-11T20:52:32.054Z,7.40
2023-01-11T20:54:58.791Z,7.53
2023-01-11T20:57:29.212Z,6.85
2023-01-11T20:59:57.988Z,7.60
2023-01-11T21:02:24.973Z,7.43
2023-01-11T21:05:00.345Z,6.90
2023-01-11T21:07:27.402Z,6.30
2023-01-11T21:09:54.027Z,7.25
2023-01-11T21:12:21.096Z,7.00
2023-01-11T21:14:47.812Z,6.85
2023-01-11T21:17:14.769Z,6.20
2023-01-11T21:19:42.934Z,6.35
2023-01-11T21:22:09.987Z,5.72
2023-01-11T21:24:38.646Z,6.35
2023-01-11T21:27:09.828Z,6.30
2023-01-11T21:29:36.481Z,6.65
2023-01-11T21:32:03.709Z,5.88
2023-01-11T21:34:30.401Z,6.60
2023-01-11T21:36:57.306Z,6.90
2023-01-11T21:39:23.948Z,6.22
2023-01-11T21:41:58.801Z,6.78
2023-01-11T21:44:30.633Z,6.78
2023-01-11T21:46:57.739Z,5.95
2023-01-11T21:49:24.440Z,6.63
2023-01-11T21:51:51.791Z,6.47
2023-01-11T21:54:26.373Z,6.18
2023-01-11T21:56:53.373Z,7.28
2023-01-11T21:59:20.757Z,6.18
2023-01-11T22:01:49.251Z,6.80
2023-01-11T22:04:17.572Z,6.88
2023-01-11T22:06:51.135Z,7.35
2023-01-11T22:09:18.827Z,7.38
2023-01-11T22:11:46.057Z,6.57
2023-01-11T22:14:12.744Z,6.43
2023-01-11T22:16:40.642Z,6.82
2023-01-11T22:19:07.722Z,7.05
2023-01-11T22:21:35.976Z,6.35
2023-01-11T22:24:03.064Z,6.38
2023-01-11T22:26:33.337Z,7.63
2023-01-11T22:29:12.188Z,6.75
2023-01-11T22:31:50.895Z,7.20
2023-01-11T22:34:18.220Z,6.88
2023-01-11T22:36:45.452Z,6.40
2023-01-11T22:39:12.833Z,7.18
2023-01-11T22:41:45.438Z,7.15
2023-01-11T22:44:12.426Z,6.80
2023-01-11T22:46:39.361Z,6.68
2023-01-11T22:49:06.320Z,7.18
2023-01-11T22:51:33.356Z,6.53
2023-01-11T22:54:00.119Z,5.90
2023-01-11T22:56:29.156Z,6.03
2023-01-11T22:58:56.435Z,6.15
2023-01-11T23:01:24.205Z,6.63
2023-01-11T23:03:52.582Z,6.50
2023-01-11T23:06:27.077Z,6.40
2023-01-11T23:08:54.122Z,6.63
2023-01-11T23:11:44.923Z,6.43
2023-01-11T23:14:13.333Z,6.25
2023-01-11T23:16:40.531Z,6.47
2023-01-11T23:19:07.661Z,6.80
2023-01-11T23:21:35.095Z,6.78
2023-01-11T23:24:02.288Z,6.85
2023-01-11T23:26:29.278Z,6.88
2023-01-11T23:28:55.959Z,6.30
2023-01-11T23:31:23.949Z,6.85
2023-01-11T23:33:53.010Z,6.82
2023-01-11T23:36:20.712Z,5.80
2023-01-11T23:38:47.720Z,5.93
2023-01-11T23:41:35.301Z,5.70
2023-01-11T23:44:02.670Z,5.78
2023-01-11T23:46:48.186Z,6.35
2023-01-11T23:49:14.934Z,6.93
2023-01-11T23:51:42.415Z,6.72
2023-01-11T23:54:09.179Z,8.13
2023-01-11T23:56:36.223Z,8.05
2023-01-11T23:59:03.283Z,7.13
